AirNav   Pilot Hours Calculator
 
 1400 users online  

48NY Turnbull Airport
Bloomfield, New York, USA

GOING TO BLOOMFIELD?


FAA INFORMATION EFFECTIVE 31 DECEMBER 2020

Location

FAA Identifier: 48NY
Lat/Long: 42-53-44.3300N 077-23-49.0600W
42-53.738833N 077-23.817667W
42.8956472,-77.3969611
(estimated)
Elevation: 890 ft. / 271 m (estimated)
Variation: 10W (1985)
From city: 2 miles E of BLOOMFIELD, NY
Time zone: UTC -5 (UTC -4 during Daylight Saving Time)
Zip code: 14469

Airport Operations

Airport use: Private use. Permission required prior to landing
Activation date: 09/2017
Control tower: no
ARTCC: CLEVELAND CENTER
FSS: BUFFALO FLIGHT SERVICE STATION
Attendance: IRREGULAR
Wind indicator: yes
Segmented circle: no

Airport Communications

UNICOM: 122.8
WX AWOS-3P at IUA (3 nm E): 118.675 (585-396-5861)
WX ASOS at ROC (18 nm NW): 124.825 (585-235-7322)

Nearby radio navigation aids

VOR radial/distance  VOR name  Freq  Var
GEEr085/15.2GENESEO VOR/DME108.2009W
ROCr150/18.0ROCHESTER VOR/DME110.0012W

 
NDB name  Hdg/Dist  Freq  Var  ID
PENN YAN327/21.326012WPYA .--. -.-- .-

Airport Services

Runway Information

Runway 7/25

Dimensions: 800 x 50 ft. / 244 x 15 m
Surface: turf
Runway edge lights: non-standard
RUNWAY 7  RUNWAY 25
Traffic pattern: leftleft
Markings: , in poor condition, in poor condition
Obstructions: none32 ft. tree, 545 ft. from runway

Airport Ownership and Management from official FAA records

Ownership: Privately-owned
Owner: DOUGLAS TURNBULL
PO BOX 489
BLOOMFIELD, NY 14469
Phone 585-739-7298
Manager: DOUGLAS TURNBULL
PO BOX 489
BLOOMFIELD, NY 14469
Phone 585-739-7298

Airport Operational Statistics

Aircraft based on the field: 1
Single engine airplanes: 1
    

Additional Remarks

FOR CD CTC CLEVELAND ARTCC AT 440-774-0490.

Instrument Procedures

There are no published instrument procedures at 48NY.

Some nearby airports with instrument procedures:

KIUA - Canandaigua Airport (3 nm E)
KROC - Frederick Douglass - Greater Rochester International Airport (18 nm NW)
KPEO - Penn Yan Airport (22 nm SE)
KSDC - Williamson-Sodus Airport (24 nm NE)
KDSV - Dansville Municipal Airport (24 nm SW)
 
Loc | Ops | Rwys | IFR | FBO | Links
Com | Nav | Svcs | Stats | Notes
Aerial photo
WARNING: Photo may not be current or correct
Aerial photo of 48NY (Turnbull Airport)
Photo by Doug Turnbull
Photo taken 01-Jun-2014
looking north.

Do you have a better or more recent aerial photo of Turnbull Airport that you would like to share? If so, please send us your photo.

 
Airport distance calculator
Flying to Turnbull Airport? Find the distance to fly.

From to 48NY

Sunrise and sunset
Times for 18-Jan-2021
 Local
(UTC-5)
 Zulu
(UTC)
Morning civil twilight07:0612:06
Sunrise07:3712:37
Sunset17:0322:03
Evening civil twilight17:3422:34

Current date and time
Zulu (UTC)  18-Jan-2021 16:53:55
Local (UTC-5)  18-Jan-2021 11:53:55
 
METAR
KROC 
18nm NW 
181554Z 31004KT 10SM FEW017 OVC047 M01/M05 A2976 RMK AO2 SLP085 T10111050
KPEO 
21nm SE 
181627Z AUTO 32005KT 10SM SCT013 BKN025 OVC042 M01/M04 A2972 RMK AO2 T10061039
KSDC 
24nm NE 
181635Z AUTO 31005KT 10SM OVC026 00/M05 A2976 RMK AO2
KDSV 
24nm SW 
181631Z AUTO 35003KT 10SM SCT017 00/M03 A2974 RMK AO2 SNE1556 P0006 T00001028
KGVQ 
35nm W 
181624Z AUTO 34004KT 10SM -SN OVC016 M01/M04 A2974 RMK AO2 UPB14E22SNE14B22 P0000 FZRANO
TAF
KROC 
18nm NW 
181143Z 1812/1912 31006KT P6SM VCSH BKN025 TEMPO 1816/1820 BKN035 FM190000 27006KT P6SM VCSH BKN025 FM190600 24006KT 4SM -SN OVC015
NOTAMs
Click for the latest NOTAMs
NOTAMs are issued by the DoD/FAA and will open in a separate window not controlled by AirNav.

 

 
 

Would you like to see your business listed on this page?

 If your business provides an interesting product or service to pilots, flight crews, aircraft, or users of the Turnbull Airport, you should consider listing it here.  To start the listing process, click on the button below
 
Add a business
 

Other Pages about Turnbull Airport

Update a link
 
Copyright © AirNav, LLC. All rights reserved. Privacy Policy  Contact